Terminal Aerodrome Forecast
Issued by NWS

Home | Current Version | Previous Version | Text Only | Print | Product List | Glossary On
Versions: 1 2 3 4 5 6 7 8 9 10 11 12 13
000
FTUS42 TJSJ 041735
TAFNCM
TAF
TNCM 041735Z 0418/0518 11010KT P6SM SCT025
     FM042300 11007KT P6SM FEW020
     FM051400 12012KT P6SM FEW026=

USA.gov is the U.S. government's official web portal to all federal, state and local government web resources and services.